sensor_id;sensor_type;location;lat;lon;timestamp;pressure;altitude;pressure_sealevel;temperature;humidity
19208;BME280;9737;59.466;18.036;2023-07-30T00:00:59;97886.38;;;14.15;42.23
19208;BME280;9737;59.466;18.036;2023-07-30T00:03:27;97873.63;;;14.11;42.10
19208;BME280;9737;59.466;18.036;2023-07-30T00:05:55;97860.03;;;14.06;42.24
19208;BME280;9737;59.466;18.036;2023-07-30T00:08:24;97842.75;;;14.02;42.29
19208;BME280;9737;59.466;18.036;2023-07-30T00:10:52;97828.53;;;13.94;42.80
19208;BME280;9737;59.466;18.036;2023-07-30T00:13:20;97823.00;;;13.96;42.72
19208;BME280;9737;59.466;18.036;2023-07-30T00:15:48;97811.88;;;13.92;42.82
19208;BME280;9737;59.466;18.036;2023-07-30T00:18:16;97796.25;;;13.89;42.53
19208;BME280;9737;59.466;18.036;2023-07-30T00:20:44;97787.56;;;13.87;42.85
19208;BME280;9737;59.466;18.036;2023-07-30T00:23:12;97772.34;;;13.81;42.89
19208;BME280;9737;59.466;18.036;2023-07-30T00:25:41;97764.72;;;13.78;43.01
19208;BME280;9737;59.466;18.036;2023-07-30T00:28:09;97751.78;;;13.75;43.17
19208;BME280;9737;59.466;18.036;2023-07-30T00:30:37;97743.13;;;13.73;43.24
19208;BME280;9737;59.466;18.036;2023-07-30T00:33:05;97731.22;;;13.69;43.42
19208;BME280;9737;59.466;18.036;2023-07-30T00:35:33;97725.25;;;13.67;43.37
19208;BME280;9737;59.466;18.036;2023-07-30T00:38:01;97728.94;;;13.66;43.77
19208;BME280;9737;59.466;18.036;2023-07-30T00:40:28;97742.91;;;13.68;43.80
19208;BME280;9737;59.466;18.036;2023-07-30T00:42:58;97746.22;;;13.70;43.87
19208;BME280;9737;59.466;18.036;2023-07-30T00:45:25;97749.69;;;13.71;44.04
19208;BME280;9737;59.466;18.036;2023-07-30T00:47:53;97748.88;;;13.70;43.94
19208;BME280;9737;59.466;18.036;2023-07-30T00:50:21;97747.22;;;13.69;44.24
19208;BME280;9737;59.466;18.036;2023-07-30T00:52:49;97745.59;;;13.68;44.11
19208;BME280;9737;59.466;18.036;2023-07-30T00:55:18;97747.63;;;13.66;44.09
19208;BME280;9737;59.466;18.036;2023-07-30T00:57:46;97739.63;;;13.66;44.21
19208;BME280;9737;59.466;18.036;2023-07-30T01:00:15;97737.34;;;13.63;44.58
19208;BME280;9737;59.466;18.036;2023-07-30T01:02:43;97725.41;;;13.59;44.52
19208;BME280;9737;59.466;18.036;2023-07-30T01:05:11;97726.03;;;13.61;44.61
19208;BME280;9737;59.466;18.036;2023-07-30T01:07:39;97718.38;;;13.58;44.98
19208;BME280;9737;59.466;18.036;2023-07-30T01:10:08;97709.75;;;13.56;44.97
19208;BME280;9737;59.466;18.036;2023-07-30T01:12:37;97693.50;;;13.51;45.21
19208;BME280;9737;59.466;18.036;2023-07-30T01:15:06;97687.53;;;13.49;44.92
19208;BME280;9737;59.466;18.036;2023-07-30T01:17:36;97694.53;;;13.50;44.95
19208;BME280;9737;59.466;18.036;2023-07-30T01:20:05;97688.38;;;13.49;45.11
19208;BME280;9737;59.466;18.036;2023-07-30T01:22:34;97682.59;;;13.46;45.43
19208;BME280;9737;59.466;18.036;2023-07-30T01:25:03;97664.50;;;13.41;45.38
19208;BME280;9737;59.466;18.036;2023-07-30T01:27:34;97646.44;;;13.37;45.43
19208;BME280;9737;59.466;18.036;2023-07-30T01:30:06;97629.53;;;13.29;45.67
19208;BME280;9737;59.466;18.036;2023-07-30T01:32:36;97602.00;;;13.22;45.80
19208;BME280;9737;59.466;18.036;2023-07-30T01:35:08;97579.41;;;13.18;45.66
19208;BME280;9737;59.466;18.036;2023-07-30T01:37:38;97567.22;;;13.09;45.99
19208;BME280;9737;59.466;18.036;2023-07-30T01:40:08;97553.06;;;13.09;46.01
19208;BME280;9737;59.466;18.036;2023-07-30T01:42:36;97566.22;;;13.10;46.22
19208;BME280;9737;59.466;18.036;2023-07-30T01:45:05;97543.63;;;13.06;46.23
19208;BME280;9737;59.466;18.036;2023-07-30T01:47:33;97535.38;;;13.01;46.39
19208;BME280;9737;59.466;18.036;2023-07-30T01:50:02;97523.03;;;13.00;46.50
19208;BME280;9737;59.466;18.036;2023-07-30T01:52:30;97516.47;;;12.96;46.65
19208;BME280;9737;59.466;18.036;2023-07-30T01:55:00;97507.84;;;12.94;46.66
19208;BME280;9737;59.466;18.036;2023-07-30T01:57:28;97506.38;;;12.91;46.81
19208;BME280;9737;59.466;18.036;2023-07-30T01:59:56;97499.22;;;12.92;46.77
19208;BME280;9737;59.466;18.036;2023-07-30T02:02:23;97502.91;;;12.91;46.96
19208;BME280;9737;59.466;18.036;2023-07-30T02:04:51;97501.25;;;12.90;46.95
19208;BME280;9737;59.466;18.036;2023-07-30T02:07:19;97497.97;;;12.88;47.15
19208;BME280;9737;59.466;18.036;2023-07-30T02:09:47;97494.69;;;12.86;47.20
19208;BME280;9737;59.466;18.036;2023-07-30T02:12:16;97497.97;;;12.88;47.43
19208;BME280;9737;59.466;18.036;2023-07-30T02:14:44;97503.31;;;12.88;47.51
19208;BME280;9737;59.466;18.036;2023-07-30T02:17:12;97506.59;;;12.90;47.67
19208;BME280;9737;59.466;18.036;2023-07-30T02:19:40;97529.78;;;12.96;47.71
19208;BME280;9737;59.466;18.036;2023-07-30T02:22:08;97526.50;;;12.94;48.16
19208;BME280;9737;59.466;18.036;2023-07-30T02:24:36;97536.97;;;12.95;48.00
19208;BME280;9737;59.466;18.036;2023-07-30T02:27:04;97540.66;;;12.94;48.12
19208;BME280;9737;59.466;18.036;2023-07-30T02:29:33;97558.75;;;12.99;48.27
19208;BME280;9737;59.466;18.036;2023-07-30T02:32:01;97581.38;;;13.03;48.19
19208;BME280;9737;59.466;18.036;2023-07-30T02:34:30;97575.22;;;13.02;48.41
19208;BME280;9737;59.466;18.036;2023-07-30T02:36:57;97599.25;;;13.09;48.57
19208;BME280;9737;59.466;18.036;2023-07-30T02:39:25;97607.44;;;13.08;48.65
19208;BME280;9737;59.466;18.036;2023-07-30T02:41:53;97601.09;;;13.09;48.76
19208;BME280;9737;59.466;18.036;2023-07-30T02:44:21;97610.75;;;13.10;48.83
19208;BME280;9737;59.466;18.036;2023-07-30T02:46:50;97619.38;;;13.12;49.02
19208;BME280;9737;59.466;18.036;2023-07-30T02:49:18;97632.50;;;13.13;48.98
19208;BME280;9737;59.466;18.036;2023-07-30T02:51:46;97629.03;;;13.13;49.20
19208;BME280;9737;59.466;18.036;2023-07-30T02:54:15;97650.78;;;13.16;49.40
19208;BME280;9737;59.466;18.036;2023-07-30T02:56:43;97649.81;;;13.17;49.41
19208;BME280;9737;59.466;18.036;2023-07-30T02:59:12;97659.44;;;13.18;49.54
19208;BME280;9737;59.466;18.036;2023-07-30T03:01:39;97673.03;;;13.23;49.66
19208;BME280;9737;59.466;18.036;2023-07-30T03:04:09;97695.63;;;13.27;49.90
19208;BME280;9737;59.466;18.036;2023-07-30T03:06:37;97732.22;;;13.33;50.10
19208;BME280;9737;59.466;18.036;2023-07-30T03:09:05;97740.66;;;13.37;50.16
19208;BME280;9737;59.466;18.036;2023-07-30T03:11:34;97754.44;;;13.41;50.10
19208;BME280;9737;59.466;18.036;2023-07-30T03:14:02;97790.63;;;13.50;50.29
19208;BME280;9737;59.466;18.036;2023-07-30T03:16:30;97820.69;;;13.58;50.80
19208;BME280;9737;59.466;18.036;2023-07-30T03:18:58;97830.53;;;13.58;50.67
19208;BME280;9737;59.466;18.036;2023-07-30T03:21:27;97848.66;;;13.62;50.66
19208;BME280;9737;59.466;18.036;2023-07-30T03:23:55;97881.59;;;13.70;50.83
19208;BME280;9737;59.466;18.036;2023-07-30T03:26:22;97898.03;;;13.73;50.95
19208;BME280;9737;59.466;18.036;2023-07-30T03:28:50;97904.22;;;13.74;51.27
19208;BME280;9737;59.466;18.036;2023-07-30T03:31:18;97961.06;;;13.89;51.17
19208;BME280;9737;59.466;18.036;2023-07-30T03:33:46;97986.16;;;13.94;51.34
19208;BME280;9737;59.466;18.036;2023-07-30T03:36:14;98007.78;;;14.00;51.80
19208;BME280;9737;59.466;18.036;2023-07-30T03:38:44;98057.19;;;14.10;51.58
19208;BME280;9737;59.466;18.036;2023-07-30T03:41:12;98076.16;;;14.15;51.87
19208;BME280;9737;59.466;18.036;2023-07-30T03:43:40;98123.78;;;14.26;51.82
19208;BME280;9737;59.466;18.036;2023-07-30T03:46:07;98160.03;;;14.36;51.74
19208;BME280;9737;59.466;18.036;2023-07-30T03:48:35;98178.19;;;14.40;52.24
19208;BME280;9737;59.466;18.036;2023-07-30T03:51:05;98227.69;;;14.51;52.10
19208;BME280;9737;59.466;18.036;2023-07-30T03:53:33;98262.34;;;14.59;52.57
19208;BME280;9737;59.466;18.036;2023-07-30T03:56:03;98299.84;;;14.66;52.46
19208;BME280;9737;59.466;18.036;2023-07-30T03:58:32;98318.81;;;14.71;52.75
19208;BME280;9737;59.466;18.036;2023-07-30T04:01:01;98322.31;;;14.71;52.87
19208;BME280;9737;59.466;18.036;2023-07-30T04:03:29;98332.47;;;14.76;52.72
19208;BME280;9737;59.466;18.036;2023-07-30T04:05:57;98348.16;;;14.79;53.11
19208;BME280;9737;59.466;18.036;2023-07-30T04:08:25;98360.50;;;14.80;52.88
19208;BME280;9737;59.466;18.036;2023-07-30T04:10:53;98406.31;;;14.92;53.51
19208;BME280;9737;59.466;18.036;2023-07-30T04:13:22;98434.38;;;14.96;53.27
19208;BME280;9737;59.466;18.036;2023-07-30T04:15:50;98481.06;;;15.08;53.63
19208;BME280;9737;59.466;18.036;2023-07-30T04:18:18;98514.06;;;15.15;53.46
19208;BME280;9737;59.466;18.036;2023-07-30T04:20:46;98544.25;;;15.24;53.54
19208;BME280;9737;59.466;18.036;2023-07-30T04:23:14;98590.31;;;15.34;54.00
19208;BME280;9737;59.466;18.036;2023-07-30T04:25:42;98667.41;;;15.53;53.70
19208;BME280;9737;59.466;18.036;2023-07-30T04:28:10;98743.91;;;15.70;54.04
19208;BME280;9737;59.466;18.036;2023-07-30T04:30:39;98811.72;;;15.86;54.19
19208;BME280;9737;59.466;18.036;2023-07-30T04:33:07;98896.59;;;16.08;54.41
19208;BME280;9737;59.466;18.036;2023-07-30T04:35:34;98987.72;;;16.31;54.64
19208;BME280;9737;59.466;18.036;2023-07-30T04:38:02;99053.94;;;16.45;54.69
19208;BME280;9737;59.466;18.036;2023-07-30T04:40:30;99128.09;;;16.61;54.97
19208;BME280;9737;59.466;18.036;2023-07-30T04:42:58;99213.16;;;16.83;54.98
19208;BME280;9737;59.466;18.036;2023-07-30T04:45:26;99283.66;;;17.00;55.10
19208;BME280;9737;59.466;18.036;2023-07-30T04:47:55;99340.47;;;17.12;55.19
19208;BME280;9737;59.466;18.036;2023-07-30T04:50:23;99410.34;;;17.26;55.41
19208;BME280;9737;59.466;18.036;2023-07-30T04:52:51;99442.53;;;17.34;55.49
19208;BME280;9737;59.466;18.036;2023-07-30T04:55:19;99481.97;;;17.42;55.70
19208;BME280;9737;59.466;18.036;2023-07-30T04:57:47;99464.53;;;17.38;55.71
19208;BME280;9737;59.466;18.036;2023-07-30T05:00:15;99433.34;;;17.29;55.83
19208;BME280;9737;59.466;18.036;2023-07-30T05:02:43;99447.25;;;17.32;55.97
19208;BME280;9737;59.466;18.036;2023-07-30T05:05:12;99462.03;;;17.37;56.09
19208;BME280;9737;59.466;18.036;2023-07-30T05:07:40;99506.81;;;17.44;56.12
19208;BME280;9737;59.466;18.036;2023-07-30T05:10:08;99507.81;;;17.43;56.28
19208;BME280;9737;59.466;18.036;2023-07-30T05:12:37;99547.91;;;17.53;56.36
19208;BME280;9737;59.466;18.036;2023-07-30T05:15:06;99586.31;;;17.61;56.42
19208;BME280;9737;59.466;18.036;2023-07-30T05:17:34;99616.91;;;17.69;56.49
19208;BME280;9737;59.466;18.036;2023-07-30T05:20:02;99643.06;;;17.75;56.64
19208;BME280;9737;59.466;18.036;2023-07-30T05:22:31;99681.50;;;17.83;56.85
19208;BME280;9737;59.466;18.036;2023-07-30T05:24:59;99681.31;;;17.85;56.98
19208;BME280;9737;59.466;18.036;2023-07-30T05:27:26;99702.47;;;17.88;56.96
19208;BME280;9737;59.466;18.036;2023-07-30T05:29:55;99732.88;;;17.97;57.03
19208;BME280;9737;59.466;18.036;2023-07-30T05:32:23;99790.66;;;18.09;57.20
19208;BME280;9737;59.466;18.036;2023-07-30T05:34:51;99883.41;;;18.29;57.25
19208;BME280;9737;59.466;18.036;2023-07-30T05:37:19;99964.56;;;18.49;57.36
19208;BME280;9737;59.466;18.036;2023-07-30T05:39:48;100152.66;;;18.93;57.36
19208;BME280;9737;59.466;18.036;2023-07-30T05:42:15;100338.69;;;19.40;57.65
19208;BME280;9737;59.466;18.036;2023-07-30T05:44:43;100601.03;;;19.99;57.85
19208;BME280;9737;59.466;18.036;2023-07-30T05:47:11;100694.31;;;20.18;57.94
19208;BME280;9737;59.466;18.036;2023-07-30T05:49:39;100932.97;;;20.75;57.88
19208;BME280;9737;59.466;18.036;2023-07-30T05:52:07;101074.81;;;21.05;58.07
19208;BME280;9737;59.466;18.036;2023-07-30T05:54:34;101129.28;;;21.18;58.27
19208;BME280;9737;59.466;18.036;2023-07-30T05:57:04;101086.31;;;21.07;58.32
19208;BME280;9737;59.466;18.036;2023-07-30T05:59:32;101031.88;;;20.94;58.33
19208;BME280;9737;59.466;18.036;2023-07-30T06:02:02;100862.50;;;20.52;58.45
19208;BME280;9737;59.466;18.036;2023-07-30T06:04:30;100808.09;;;20.39;58.65
19208;BME280;9737;59.466;18.036;2023-07-30T06:06:59;100737.19;;;20.21;58.50
19208;BME280;9737;59.466;18.036;2023-07-30T06:09:27;100692.28;;;20.11;58.50
19208;BME280;9737;59.466;18.036;2023-07-30T06:11:56;100658.22;;;20.02;58.59
19208;BME280;9737;59.466;18.036;2023-07-30T06:14:26;100679.47;;;20.05;58.67
19208;BME280;9737;59.466;18.036;2023-07-30T06:16:54;100662.78;;;20.02;58.72
19208;BME280;9737;59.466;18.036;2023-07-30T06:19:22;100746.97;;;20.22;58.78
19208;BME280;9737;59.466;18.036;2023-07-30T06:21:50;100739.88;;;20.21;58.76
19208;BME280;9737;59.466;18.036;2023-07-30T06:24:18;100720.66;;;20.16;58.81
19208;BME280;9737;59.466;18.036;2023-07-30T06:27:04;100751.34;;;20.23;58.99
19208;BME280;9737;59.466;18.036;2023-07-30T06:29:33;100764.56;;;20.26;58.89
19208;BME280;9737;59.466;18.036;2023-07-30T06:32:01;100762.03;;;20.24;58.93
19208;BME280;9737;59.466;18.036;2023-07-30T06:34:29;100781.25;;;20.29;59.01
19208;BME280;9737;59.466;18.036;2023-07-30T06:36:57;100794.59;;;20.31;58.99
19208;BME280;9737;59.466;18.036;2023-07-30T06:39:25;100788.53;;;20.29;59.05
19208;BME280;9737;59.466;18.036;2023-07-30T06:41:53;100746.63;;;20.17;59.03
19208;BME280;9737;59.466;18.036;2023-07-30T06:44:21;100708.00;;;20.08;59.05
19208;BME280;9737;59.466;18.036;2023-07-30T06:46:52;100662.44;;;19.97;59.08
19208;BME280;9737;59.466;18.036;2023-07-30T06:49:20;100618.38;;;19.88;59.10
19208;BME280;9737;59.466;18.036;2023-07-30T06:51:48;100626.47;;;19.88;59.36
19208;BME280;9737;59.466;18.036;2023-07-30T06:54:16;100630.69;;;19.91;59.13
19208;BME280;9737;59.466;18.036;2023-07-30T06:56:44;100645.72;;;19.93;59.33
19208;BME280;9737;59.466;18.036;2023-07-30T06:59:12;100783.28;;;20.27;59.24
19208;BME280;9737;59.466;18.036;2023-07-30T07:01:39;100773.81;;;20.23;59.37
19208;BME280;9737;59.466;18.036;2023-07-30T07:04:09;100761.66;;;20.19;59.23
19208;BME280;9737;59.466;18.036;2023-07-30T07:06:37;100731.78;;;20.13;59.39
19208;BME280;9737;59.466;18.036;2023-07-30T07:09:05;100786.16;;;20.26;59.38
19208;BME280;9737;59.466;18.036;2023-07-30T07:11:33;100888.16;;;20.48;59.34
19208;BME280;9737;59.466;18.036;2023-07-30T07:14:01;100879.22;;;20.48;59.38
19208;BME280;9737;59.466;18.036;2023-07-30T07:16:29;100901.34;;;20.51;59.55
19208;BME280;9737;59.466;18.036;2023-07-30T07:18:57;100922.78;;;20.53;59.42
19208;BME280;9737;59.466;18.036;2023-07-30T07:21:26;100970.97;;;20.65;59.51
19208;BME280;9737;59.466;18.036;2023-07-30T07:23:54;101009.50;;;20.76;59.62
19208;BME280;9737;59.466;18.036;2023-07-30T07:26:23;101082.56;;;20.92;59.58
19208;BME280;9737;59.466;18.036;2023-07-30T07:28:51;101060.56;;;20.87;59.67
19208;BME280;9737;59.466;18.036;2023-07-30T07:31:19;101033.34;;;20.80;59.64
19208;BME280;9737;59.466;18.036;2023-07-30T07:33:47;101045.84;;;20.81;59.76
19208;BME280;9737;59.466;18.036;2023-07-30T07:36:15;101026.56;;;20.76;59.76
19208;BME280;9737;59.466;18.036;2023-07-30T07:38:44;101064.28;;;20.86;59.77
19208;BME280;9737;59.466;18.036;2023-07-30T07:41:14;101196.22;;;21.16;59.85
19208;BME280;9737;59.466;18.036;2023-07-30T07:43:42;101251.59;;;21.30;59.81
19208;BME280;9737;59.466;18.036;2023-07-30T07:46:09;101326.59;;;21.46;59.99
19208;BME280;9737;59.466;18.036;2023-07-30T07:48:40;101337.25;;;21.47;59.99
19208;BME280;9737;59.466;18.036;2023-07-30T07:51:10;101331.84;;;21.47;59.90
19208;BME280;9737;59.466;18.036;2023-07-30T07:53:38;101361.75;;;21.46;59.90
19208;BME280;9737;59.466;18.036;2023-07-30T07:56:07;101433.28;;;21.69;59.99
19208;BME280;9737;59.466;18.036;2023-07-30T07:58:35;101460.72;;;21.74;60.18
19208;BME280;9737;59.466;18.036;2023-07-30T08:01:03;101488.16;;;21.79;60.20
19208;BME280;9737;59.466;18.036;2023-07-30T08:03:31;101532.22;;;21.89;60.12
19208;BME280;9737;59.466;18.036;2023-07-30T08:05:59;101500.53;;;21.82;60.14
19208;BME280;9737;59.466;18.036;2023-07-30T08:08:27;101460.72;;;21.74;60.29
19208;BME280;9737;59.466;18.036;2023-07-30T08:10:55;101411.56;;;21.61;60.15
19208;BME280;9737;59.466;18.036;2023-07-30T08:13:24;101380.59;;;21.55;60.17
19208;BME280;9737;59.466;18.036;2023-07-30T08:15:52;101383.28;;;21.55;60.12
19208;BME280;9737;59.466;18.036;2023-07-30T08:18:20;101443.09;;;21.70;60.14
19208;BME280;9737;59.466;18.036;2023-07-30T08:20:49;101513.56;;;21.86;60.28
19208;BME280;9737;59.466;18.036;2023-07-30T08:23:17;101621.44;;;22.09;60.22
19208;BME280;9737;59.466;18.036;2023-07-30T08:25:45;101660.56;;;22.14;60.20
19208;BME280;9737;59.466;18.036;2023-07-30T08:28:13;101810.41;;;22.50;60.10
19208;BME280;9737;59.466;18.036;2023-07-30T08:30:42;101883.59;;;22.68;60.44
19208;BME280;9737;59.466;18.036;2023-07-30T08:33:10;101952.72;;;22.82;60.08
19208;BME280;9737;59.466;18.036;2023-07-30T08:35:38;101923.66;;;22.74;60.22
19208;BME280;9737;59.466;18.036;2023-07-30T08:38:06;102027.84;;;22.99;60.40
19208;BME280;9737;59.466;18.036;2023-07-30T08:40:33;102048.91;;;23.05;60.32
19208;BME280;9737;59.466;18.036;2023-07-30T08:43:02;102084.41;;;23.12;60.46
19208;BME280;9737;59.466;18.036;2023-07-30T08:45:31;102085.41;;;23.11;60.50
19208;BME280;9737;59.466;18.036;2023-07-30T08:48:00;102133.91;;;23.24;60.60
19208;BME280;9737;59.466;18.036;2023-07-30T08:50:29;102204.94;;;23.37;60.49
19208;BME280;9737;59.466;18.036;2023-07-30T08:52:59;102341.13;;;23.69;60.41
19208;BME280;9737;59.466;18.036;2023-07-30T08:55:27;102442.22;;;23.91;60.52
19208;BME280;9737;59.466;18.036;2023-07-30T08:57:57;102448.38;;;23.93;60.17
19208;BME280;9737;59.466;18.036;2023-07-30T09:00:28;102517.53;;;24.08;60.45
19208;BME280;9737;59.466;18.036;2023-07-30T09:03:00;102604.41;;;24.27;60.49
19208;BME280;9737;59.466;18.036;2023-07-30T09:05:30;102685.56;;;24.42;60.49
19208;BME280;9737;59.466;18.036;2023-07-30T09:07:58;102751.06;;;24.58;60.63
19208;BME280;9737;59.466;18.036;2023-07-30T09:10:26;102808.72;;;24.71;60.54
19208;BME280;9737;59.466;18.036;2023-07-30T09:12:55;102925.13;;;24.96;60.55
19208;BME280;9737;59.466;18.036;2023-07-30T09:15:31;103004.34;;;25.13;60.53
19208;BME280;9737;59.466;18.036;2023-07-30T09:18:01;103123.25;;;25.41;60.35
19208;BME280;9737;59.466;18.036;2023-07-30T09:20:36;103279.19;;;25.74;60.40
19208;BME280;9737;59.466;18.036;2023-07-30T09:23:05;103406.88;;;25.98;60.53
19208;BME280;9737;59.466;18.036;2023-07-30T09:25:33;103579.53;;;26.38;60.54
19208;BME280;9737;59.466;18.036;2023-07-30T09:28:01;103875.88;;;27.02;60.11
19208;BME280;9737;59.466;18.036;2023-07-30T09:30:29;104046.44;;;27.39;60.18
19208;BME280;9737;59.466;18.036;2023-07-30T09:32:59;104187.78;;;27.69;60.15
19208;BME280;9737;59.466;18.036;2023-07-30T09:35:32;104186.91;;;27.69;60.07
19208;BME280;9737;59.466;18.036;2023-07-30T09:38:02;104310.44;;;27.95;60.22
19208;BME280;9737;59.466;18.036;2023-07-30T09:40:31;104438.41;;;28.23;60.01
19208;BME280;9737;59.466;18.036;2023-07-30T09:43:00;104410.56;;;28.18;60.17
19208;BME280;9737;59.466;18.036;2023-07-30T09:45:33;104596.91;;;28.58;59.90
19208;BME280;9737;59.466;18.036;2023-07-30T09:48:02;105035.97;;;29.50;60.02
19208;BME280;9737;59.466;18.036;2023-07-30T09:50:33;105332.84;;;30.11;59.72
19208;BME280;9737;59.466;18.036;2023-07-30T09:53:02;105057.66;;;29.53;59.77
19208;BME280;9737;59.466;18.036;2023-07-30T09:55:30;104512.63;;;28.41;59.65
19208;BME280;9737;59.466;18.036;2023-07-30T09:57:58;104087.25;;;27.52;59.85
19208;BME280;9737;59.466;18.036;2023-07-30T10:00:27;103678.13;;;26.64;59.50
19208;BME280;9737;59.466;18.036;2023-07-30T10:02:58;103335.69;;;25.91;59.38
19208;BME280;9737;59.466;18.036;2023-07-30T10:05:29;103180.47;;;25.60;59.03
19208;BME280;9737;59.466;18.036;2023-07-30T10:08:04;102950.03;;;25.11;58.94
19208;BME280;9737;59.466;18.036;2023-07-30T10:10:34;102527.81;;;24.14;58.82
19208;BME280;9737;59.466;18.036;2023-07-30T10:13:05;101923.75;;;22.82;58.71
19208;BME280;9737;59.466;18.036;2023-07-30T10:15:34;101575.00;;;22.04;58.67
19208;BME280;9737;59.466;18.036;2023-07-30T10:18:02;101241.59;;;21.30;58.48
19208;BME280;9737;59.466;18.036;2023-07-30T10:20:31;101014.75;;;20.77;58.29
19208;BME280;9737;59.466;18.036;2023-07-30T10:23:01;101001.56;;;20.74;58.13
19208;BME280;9737;59.466;18.036;2023-07-30T10:25:42;101025.09;;;20.82;58.10
19208;BME280;9737;59.466;18.036;2023-07-30T10:28:26;101358.28;;;21.61;57.90
19208;BME280;9737;59.466;18.036;2023-07-30T10:30:58;102004.47;;;23.06;57.91
19208;BME280;9737;59.466;18.036;2023-07-30T10:33:44;102892.13;;;25.09;58.06
19208;BME280;9737;59.466;18.036;2023-07-30T10:36:13;103654.13;;;26.77;58.21
19208;BME280;9737;59.466;18.036;2023-07-30T10:38:43;104280.88;;;28.10;58.36
19208;BME280;9737;59.466;18.036;2023-07-30T10:41:12;104750.91;;;29.05;58.27
19208;BME280;9737;59.466;18.036;2023-07-30T10:43:45;104984.34;;;29.55;58.22
19208;BME280;9737;59.466;18.036;2023-07-30T10:46:15;105072.56;;;29.71;58.33
19208;BME280;9737;59.466;18.036;2023-07-30T10:48:44;105017.72;;;29.60;57.99
19208;BME280;9737;59.466;18.036;2023-07-30T10:51:13;104685.06;;;28.84;58.29
19208;BME280;9737;59.466;18.036;2023-07-30T10:53:43;104438.09;;;28.37;58.43
19208;BME280;9737;59.466;18.036;2023-07-30T10:56:12;103890.47;;;27.22;58.43
19208;BME280;9737;59.466;18.036;2023-07-30T10:58:40;103519.94;;;26.43;58.45
19208;BME280;9737;59.466;18.036;2023-07-30T11:01:09;103188.50;;;25.72;58.21
19208;BME280;9737;59.466;18.036;2023-07-30T11:03:37;102909.31;;;25.10;58.20
19208;BME280;9737;59.466;18.036;2023-07-30T11:06:05;102843.44;;;24.96;57.95
19208;BME280;9737;59.466;18.036;2023-07-30T11:08:36;103119.66;;;25.60;57.89
19208;BME280;9737;59.466;18.036;2023-07-30T11:11:06;103165.97;;;25.70;57.72
19208;BME280;9737;59.466;18.036;2023-07-30T11:13:35;103031.78;;;25.39;57.91
19208;BME280;9737;59.466;18.036;2023-07-30T11:16:05;102948.00;;;25.23;57.81
19208;BME280;9737;59.466;18.036;2023-07-30T11:18:33;103303.97;;;26.00;57.71
19208;BME280;9737;59.466;18.036;2023-07-30T11:21:03;103932.66;;;27.38;57.43
19208;BME280;9737;59.466;18.036;2023-07-30T11:23:31;104788.84;;;29.21;57.66
19208;BME280;9737;59.466;18.036;2023-07-30T11:26:00;105266.41;;;30.17;57.68
19208;BME280;9737;59.466;18.036;2023-07-30T11:28:31;104721.91;;;29.03;57.77
19208;BME280;9737;59.466;18.036;2023-07-30T11:31:05;104206.75;;;27.92;58.03
19208;BME280;9737;59.466;18.036;2023-07-30T11:33:33;103719.69;;;26.87;57.97
19208;BME280;9737;59.466;18.036;2023-07-30T11:36:03;103296.22;;;25.95;57.70
19208;BME280;9737;59.466;18.036;2023-07-30T11:38:31;103053.72;;;25.47;57.54
19208;BME280;9737;59.466;18.036;2023-07-30T11:41:00;102865.34;;;25.05;57.41
19208;BME280;9737;59.466;18.036;2023-07-30T11:43:29;102526.44;;;24.28;57.43
19208;BME280;9737;59.466;18.036;2023-07-30T11:46:11;102310.03;;;23.82;57.47
19208;BME280;9737;59.466;18.036;2023-07-30T11:48:40;102161.28;;;23.48;56.99
19208;BME280;9737;59.466;18.036;2023-07-30T11:51:18;101982.25;;;23.03;57.20
19208;BME280;9737;59.466;18.036;2023-07-30T11:53:49;101888.03;;;22.87;57.23
19208;BME280;9737;59.466;18.036;2023-07-30T11:56:22;101671.59;;;22.39;57.00
19208;BME280;9737;59.466;18.036;2023-07-30T11:58:54;101384.75;;;21.76;56.89
19208;BME280;9737;59.466;18.036;2023-07-30T12:01:24;101249.44;;;21.42;57.12
19208;BME280;9737;59.466;18.036;2023-07-30T12:03:54;101028.13;;;20.87;56.71
19208;BME280;9737;59.466;18.036;2023-07-30T12:06:23;100679.13;;;20.08;56.79
19208;BME280;9737;59.466;18.036;2023-07-30T12:08:51;100472.34;;;19.59;56.51
19208;BME280;9737;59.466;18.036;2023-07-30T12:11:19;100062.66;;;18.63;56.56
19208;BME280;9737;59.466;18.036;2023-07-30T12:13:47;99627.16;;;17.57;56.39
19208;BME280;9737;59.466;18.036;2023-07-30T12:16:18;99389.41;;;16.99;56.28
19208;BME280;9737;59.466;18.036;2023-07-30T12:18:48;99331.97;;;16.85;56.37
19208;BME280;9737;59.466;18.036;2023-07-30T12:21:15;99304.81;;;16.80;56.08
19208;BME280;9737;59.466;18.036;2023-07-30T12:23:43;99207.50;;;16.55;56.08
19208;BME280;9737;59.466;18.036;2023-07-30T12:26:11;99131.47;;;16.40;56.18
19208;BME280;9737;59.466;18.036;2023-07-30T12:28:39;99144.72;;;16.41;56.06
19208;BME280;9737;59.466;18.036;2023-07-30T12:31:06;99101.03;;;16.33;56.20
19208;BME280;9737;59.466;18.036;2023-07-30T12:33:36;99108.91;;;16.34;56.09
19208;BME280;9737;59.466;18.036;2023-07-30T12:36:04;99149.16;;;16.34;56.27
19208;BME280;9737;59.466;18.036;2023-07-30T12:38:32;99211.50;;;16.59;56.27
19208;BME280;9737;59.466;18.036;2023-07-30T12:41:01;99225.19;;;16.64;56.26
19208;BME280;9737;59.466;18.036;2023-07-30T12:43:29;99216.75;;;16.53;56.15
19208;BME280;9737;59.466;18.036;2023-07-30T12:45:56;99251.53;;;16.69;56.41
19208;BME280;9737;59.466;18.036;2023-07-30T12:48:24;99214.00;;;16.61;56.46
19208;BME280;9737;59.466;18.036;2023-07-30T12:50:54;99238.47;;;16.66;56.54
19208;BME280;9737;59.466;18.036;2023-07-30T12:53:23;99240.13;;;16.67;56.51
19208;BME280;9737;59.466;18.036;2023-07-30T12:55:52;99240.13;;;16.67;56.38
19208;BME280;9737;59.466;18.036;2023-07-30T12:58:20;99259.59;;;16.69;56.54
19208;BME280;9737;59.466;18.036;2023-07-30T13:00:47;99325.94;;;16.83;56.55
19208;BME280;9737;59.466;18.036;2023-07-30T13:03:15;99372.81;;;16.95;56.83